Elwood, KS

10:12 PM CDT on October 15, 2019 (GMT -0500)
Brookdale | | Change Station
Active Advisory: Flood Warning

Elev 965 ft 39.77 °N, 94.82 °W | Updated 4 seconds ago

Clear
Clear
48.1 °F
Feels Like 48 °F
N
1.2
Wind Variable Wind from NNW
Gusts 0.6 mph

Today
High -- | Low -- °F
--% Chance of Precip.
Yesterday
High -- | Low -- °F
Precip. -- in
Pressure 30.12 in
Visibility 10.0 miles
Clouds Clear
Windchill 48 °F
Dew Point 34 °F
Humidity 59%
Rainfall in
Snow Depth Not available.
7:29 AM 6:40 PM
Waning Gibbous, 95% visible
METAR KSTJ 160153Z AUTO 34012KT 10SM CLR 10/00 A3012 RMK AO2 SLP200 T01000000
Pressure 30.12 in
Visibility 10.0 miles
Clouds Clear
Windchill 48 °F
Dew Point 34 °F
Humidity 59%
Rainfall in
Snow Depth Not available.
7:29 AM 6:40 PM
Waning Gibbous, 95% visible
METAR KSTJ 160153Z AUTO 34012KT 10SM CLR 10/00 A3012 RMK AO2 SLP200 T01000000

Get Your Daily Forecast Email!

Thanks for signing up!

Be on the lookout for a verification email in your inbox.

You'll start receiving severe weather alerts in your inbox..

×

10-Day Weather Forecast

Almanac

Astronomy

Oct. 15, 2019 Rise Set
Actual Time
Civil Twilight
Nautical Twilight
Astronomical Twilight
Moon
Length of Visible Light
Length of Day
Tomorrow will be .
, % of the Moon is Illuminated

Today's Extremes

State Highs State Lows

Community

WunderPhotos

Category 6

Welcome to Category 6. This is the collective home for Weather Underground's featured writeups by Dr. Jeff Masters (right), Bob Henson (left), Chris Burt, and other regular contributors.

Nearby

Air Quality

  Air Quality AQ Index Pollutant
Not available.

Snow Depth

Station Depth Elevation

Earthquake Activity

City Distance Mag. Time & Date
Minimum magnitude displayed is 2.5.

Coastal Water Temperatures

Place Temperature

Stations

Nearby Weather Stations

Station Location Temp. Windchill Dew Point Humidity Wind Precip. Elev Updated Type
                   

Watches & Warnings

Flood Warning
Issued: 9:43 AM CDT Oct. 14, 2019 – National Weather Service

The Flood Warning continues for
the Missouri River at St Joseph.
* Until further notice.
* At 8:30 am Monday the stage was 22.0 feet.
* Flood stage is 17.0 feet.
* Moderate flooding is occurring and moderate flooding is forecast.
* Forecast... the river will continue to fall to a stage of 21.9 feet
by Tuesday morning.
* At 21.0 feet... Riverfront Park in St. Joseph begins to flood.
* At 19.0 feet... backwater from the Missouri River floods property
along the Nodaway river at Nodaway, Missouri.
* At 17.0 feet... lowland flooding upstream and downstream from St.
Joseph occurs.


                       Latest
location fs stage day/time forecast

Missouri River
St Joseph 17 22.0 Mon 08 am 22.0 this afternoon


lat... Lon 3991 9501 3990 9489 3975 9483 3964 9488 3970 9505